Raymond, South Dakota
Current Conditions -  °F | °C
As of 3:53 AM on Saturday 20 Dec 2014 (Local Time) from KATY Reporting Station
Haze Haze  
Wind Chill: 19°   Ceiling: 300
Heat Index: 28°   Visibility: 3mi
Dew Point: 27°   Wind: 10mph
Humidity: 96%   Direction: 220°SW
Pressure: 30.02"   Gusts: NA
Location:  44.91°N, 97.94°W
Report Text: KATY 200953Z AUTO 22009KT 3SM BR OVC003 M02/M03 A3002 RMK AO2 SLP189 T10221028
Loading
Personal Weather Stations






























Interactive Weather Map New forecast layout! Learn more

10-Day Weather Forecast

Advertisements
Track Severe Weather on mobile